createdAt,value
2023-05-09T00:01:47.754Z,11.60
2023-05-09T00:03:43.245Z,12.60
2023-05-09T00:05:36.059Z,11.50
2023-05-09T00:07:29.146Z,12.30
2023-05-09T00:09:21.982Z,12.00
2023-05-09T00:11:14.925Z,11.70
2023-05-09T00:13:08.176Z,11.40
2023-05-09T00:15:01.228Z,11.10
2023-05-09T00:16:54.118Z,11.60
2023-05-09T00:18:47.326Z,11.20
2023-05-09T00:20:41.096Z,11.00
2023-05-09T00:22:33.942Z,11.20
2023-05-09T00:24:27.507Z,11.30
2023-05-09T00:26:21.889Z,11.40
2023-05-09T00:28:14.938Z,11.40
2023-05-09T00:30:08.609Z,12.20
2023-05-09T00:32:01.477Z,12.40
2023-05-09T00:33:54.397Z,12.10
2023-05-09T00:35:47.551Z,11.80
2023-05-09T00:37:40.607Z,12.30
2023-05-09T00:39:33.445Z,11.50
2023-05-09T00:41:26.474Z,12.10
2023-05-09T00:43:19.342Z,12.30
2023-05-09T00:45:12.425Z,12.40
2023-05-09T00:47:06.773Z,12.60
2023-05-09T00:48:59.725Z,12.20
2023-05-09T00:50:53.306Z,12.70
2023-05-09T00:52:46.651Z,12.70
2023-05-09T00:54:39.796Z,12.90
2023-05-09T00:56:32.846Z,12.70
2023-05-09T00:58:25.897Z,12.50
2023-05-09T01:00:18.859Z,12.00
2023-05-09T01:02:11.916Z,11.40
2023-05-09T01:04:05.663Z,12.60
2023-05-09T01:06:11.128Z,12.10
2023-05-09T01:08:13.265Z,12.30
2023-05-09T01:10:32.203Z,12.60
2023-05-09T01:12:37.462Z,12.70
2023-05-09T01:14:55.614Z,12.30
2023-05-09T01:17:02.777Z,11.90
2023-05-09T01:19:08.000Z,12.50
2023-05-09T01:21:07.705Z,12.50
2023-05-09T01:23:34.578Z,12.40
2023-05-09T01:25:41.856Z,12.20
2023-05-09T01:27:53.772Z,12.70
2023-05-09T01:29:57.249Z,12.60
2023-05-09T01:31:51.933Z,12.30
2023-05-09T01:33:48.496Z,12.60
2023-05-09T01:35:46.120Z,13.00
2023-05-09T01:37:42.085Z,12.80
2023-05-09T01:39:38.644Z,12.80
2023-05-09T01:41:36.375Z,13.70
2023-05-09T01:43:31.060Z,13.60
2023-05-09T01:45:26.416Z,12.90
2023-05-09T01:47:20.302Z,12.00
2023-05-09T01:49:13.962Z,13.00
2023-05-09T01:51:09.440Z,12.90
2023-05-09T01:53:03.343Z,14.10
2023-05-09T01:54:57.516Z,14.40
2023-05-09T01:56:51.504Z,14.00
2023-05-09T01:58:48.433Z,13.40
2023-05-09T02:00:42.257Z,13.00
2023-05-09T02:02:36.444Z,14.30
2023-05-09T02:04:30.973Z,14.30
2023-05-09T02:06:24.933Z,13.70
2023-05-09T02:08:21.336Z,14.90
2023-05-09T02:10:16.055Z,14.10
2023-05-09T02:12:09.014Z,14.40
2023-05-09T02:14:01.954Z,15.20
2023-05-09T02:15:56.736Z,14.00
2023-05-09T02:17:50.040Z,14.30
2023-05-09T02:19:44.020Z,15.70
2023-05-09T02:21:37.023Z,15.30
2023-05-09T02:23:30.815Z,15.20
2023-05-09T02:25:23.934Z,15.20
2023-05-09T02:27:18.120Z,15.40
2023-05-09T02:29:11.982Z,14.80
2023-05-09T02:31:09.234Z,15.20
2023-05-09T02:33:05.112Z,15.20
2023-05-09T02:35:01.170Z,15.80
2023-05-09T02:36:54.222Z,16.00
2023-05-09T02:38:47.378Z,15.50
2023-05-09T02:40:43.572Z,15.70
2023-05-09T02:42:36.771Z,15.20
2023-05-09T02:44:29.606Z,15.40
2023-05-09T02:46:22.498Z,15.40
2023-05-09T02:48:15.393Z,15.50
2023-05-09T02:50:08.756Z,15.70
2023-05-09T02:52:01.952Z,15.90
2023-05-09T02:53:54.957Z,16.40
2023-05-09T02:55:47.807Z,15.70
2023-05-09T02:57:40.746Z,16.00
2023-05-09T02:59:33.899Z,17.00
2023-05-09T03:01:28.126Z,16.40
2023-05-09T03:03:22.388Z,16.40
2023-05-09T03:05:16.197Z,16.00
2023-05-09T03:07:09.377Z,16.80
2023-05-09T03:09:02.737Z,16.80
2023-05-09T03:10:56.198Z,16.40
2023-05-09T03:12:49.532Z,16.60
2023-05-09T03:14:42.517Z,16.70
2023-05-09T03:16:35.975Z,17.30
2023-05-09T03:18:29.319Z,16.80
2023-05-09T03:20:22.272Z,16.50
2023-05-09T03:22:16.140Z,17.20
2023-05-09T03:24:23.320Z,17.00
2023-05-09T03:26:16.378Z,17.30
2023-05-09T03:28:09.523Z,17.20
2023-05-09T03:30:02.573Z,18.00
2023-05-09T03:31:55.497Z,17.90
2023-05-09T03:33:48.571Z,16.90
2023-05-09T03:35:41.624Z,18.00
2023-05-09T03:37:34.983Z,18.90
2023-05-09T03:39:28.030Z,17.40
2023-05-09T03:41:22.835Z,17.90
2023-05-09T03:43:16.284Z,19.10
2023-05-09T03:45:09.791Z,17.50
2023-05-09T03:47:02.968Z,18.40
2023-05-09T03:49:01.887Z,18.30
2023-05-09T03:50:55.038Z,18.70
2023-05-09T03:52:48.501Z,19.90
2023-05-09T03:54:42.470Z,19.30
2023-05-09T03:56:35.420Z,18.70
2023-05-09T03:58:28.378Z,18.00
2023-05-09T04:00:22.770Z,18.10
2023-05-09T04:02:19.469Z,18.00
2023-05-09T04:04:13.516Z,18.60
2023-05-09T04:06:07.041Z,17.80
2023-05-09T04:08:04.278Z,17.80
2023-05-09T04:09:57.525Z,18.90
2023-05-09T04:11:50.483Z,18.40
2023-05-09T04:13:43.338Z,20.30
2023-05-09T04:15:48.119Z,19.00
2023-05-09T04:17:41.115Z,27.00
2023-05-09T04:19:33.957Z,19.60
2023-05-09T04:21:27.007Z,17.60
2023-05-09T04:23:22.107Z,18.20
2023-05-09T04:25:16.137Z,17.50
2023-05-09T04:27:09.318Z,16.00
2023-05-09T04:29:02.488Z,16.40
2023-05-09T04:30:55.519Z,16.30
2023-05-09T04:32:49.128Z,17.30
2023-05-09T04:34:42.430Z,16.40
2023-05-09T04:36:40.106Z,15.70
2023-05-09T04:38:33.360Z,16.00
2023-05-09T04:40:27.048Z,15.30
2023-05-09T04:42:24.170Z,15.10
2023-05-09T04:44:17.330Z,15.20
2023-05-09T04:46:11.224Z,15.10
2023-05-09T04:48:04.689Z,14.70
2023-05-09T04:49:57.725Z,13.70
2023-05-09T04:51:53.213Z,14.60
2023-05-09T04:53:46.058Z,13.80
2023-05-09T04:55:39.060Z,14.00
2023-05-09T04:57:32.055Z,13.40
2023-05-09T04:59:25.211Z,12.90
2023-05-09T05:01:19.108Z,12.80
2023-05-09T05:03:13.060Z,12.40
2023-05-09T05:05:12.060Z,12.30
2023-05-09T05:07:07.506Z,13.00
2023-05-09T05:09:01.728Z,13.00
2023-05-09T05:10:54.569Z,12.70
2023-05-09T05:12:47.463Z,12.90
2023-05-09T05:14:40.451Z,13.20
2023-05-09T05:16:34.407Z,12.00
2023-05-09T05:18:27.596Z,11.70
2023-05-09T05:20:21.329Z,11.00
2023-05-09T05:22:15.026Z,11.50
2023-05-09T05:24:08.484Z,11.40
2023-05-09T05:26:01.666Z,10.60
2023-05-09T05:27:57.149Z,10.60
2023-05-09T05:29:49.992Z,10.90
2023-05-09T05:31:42.883Z,10.70
2023-05-09T05:33:35.790Z,10.00
2023-05-09T05:35:29.508Z,9.80
2023-05-09T05:37:23.504Z,10.20
2023-05-09T05:39:16.386Z,9.50
2023-05-09T05:41:11.574Z,9.20
2023-05-09T05:43:05.049Z,9.20
2023-05-09T05:45:04.585Z,9.30
2023-05-09T05:46:58.197Z,9.50
2023-05-09T05:48:52.395Z,8.80
2023-05-09T05:50:46.036Z,9.10
2023-05-09T05:52:41.765Z,8.30
2023-05-09T05:54:36.525Z,8.60
2023-05-09T05:56:29.383Z,8.10
2023-05-09T05:58:22.557Z,8.70
2023-05-09T06:00:16.515Z,8.90
2023-05-09T06:02:16.266Z,8.20
2023-05-09T06:04:09.320Z,8.40
2023-05-09T06:06:02.418Z,7.40
2023-05-09T06:07:55.365Z,8.20
2023-05-09T06:09:48.225Z,7.90
2023-05-09T06:11:41.147Z,8.10
2023-05-09T06:13:34.732Z,7.50
2023-05-09T06:15:30.129Z,7.80
2023-05-09T06:17:23.288Z,8.40
2023-05-09T06:19:16.355Z,7.70
2023-05-09T06:21:09.691Z,7.80
2023-05-09T06:23:02.758Z,8.60
2023-05-09T06:24:56.012Z,8.10
2023-05-09T06:27:01.300Z,8.40
2023-05-09T06:28:54.623Z,7.00
2023-05-09T06:30:47.728Z,7.40
2023-05-09T06:32:40.719Z,7.20
2023-05-09T06:34:33.641Z,6.90
2023-05-09T06:36:26.591Z,7.20
2023-05-09T06:38:19.437Z,7.30
2023-05-09T06:40:12.388Z,7.30
2023-05-09T06:42:05.438Z,6.60
2023-05-09T06:43:59.115Z,6.80
2023-05-09T06:45:52.494Z,7.00
2023-05-09T06:47:46.029Z,6.40
2023-05-09T06:49:46.844Z,6.50
2023-05-09T06:51:39.905Z,6.50
2023-05-09T06:53:32.751Z,6.50
2023-05-09T06:55:25.596Z,6.20
2023-05-09T06:57:18.528Z,6.10
2023-05-09T06:59:13.543Z,6.10
2023-05-09T07:01:07.826Z,6.50
2023-05-09T07:03:01.202Z,6.10
2023-05-09T07:04:55.854Z,6.00
2023-05-09T07:06:56.429Z,5.80
2023-05-09T07:08:49.560Z,5.60
2023-05-09T07:10:42.720Z,5.90
2023-05-09T07:12:35.966Z,5.30
2023-05-09T07:14:30.153Z,5.80
2023-05-09T07:16:23.542Z,5.50
2023-05-09T07:18:16.794Z,4.90
2023-05-09T07:20:13.621Z,5.40
2023-05-09T07:22:06.905Z,5.00
2023-05-09T07:24:00.314Z,4.90
2023-05-09T07:25:59.745Z,4.60
2023-05-09T07:27:53.212Z,4.30
2023-05-09T07:29:46.653Z,4.50
2023-05-09T07:31:39.874Z,4.70
2023-05-09T07:33:33.953Z,4.50
2023-05-09T07:35:27.810Z,4.50
2023-05-09T07:37:21.908Z,4.20
2023-05-09T07:39:15.084Z,4.30
2023-05-09T07:41:08.213Z,4.30
2023-05-09T07:43:01.383Z,4.50
2023-05-09T07:44:54.830Z,4.20
2023-05-09T07:46:48.184Z,4.30
2023-05-09T07:48:41.360Z,3.90
2023-05-09T07:50:34.621Z,4.20
2023-05-09T07:52:31.589Z,4.10
2023-05-09T07:54:25.198Z,3.90
2023-05-09T07:56:18.439Z,4.10
2023-05-09T07:58:15.411Z,4.10
2023-05-09T08:00:10.725Z,3.70
2023-05-09T08:04:03.344Z,4.50
2023-05-09T08:05:58.446Z,4.10
2023-05-09T08:07:52.909Z,4.40
2023-05-09T08:09:45.869Z,4.70
2023-05-09T08:11:38.923Z,4.10
2023-05-09T08:13:31.888Z,3.80
2023-05-09T08:15:25.132Z,3.70
2023-05-09T08:17:23.261Z,3.50
2023-05-09T08:19:16.788Z,4.10
2023-05-09T08:21:10.538Z,3.50
2023-05-09T08:23:04.402Z,3.50
2023-05-09T08:24:57.920Z,3.90
2023-05-09T08:26:51.407Z,4.00
2023-05-09T08:28:44.862Z,3.40
2023-05-09T08:30:52.470Z,3.50
2023-05-09T08:32:45.778Z,3.20
2023-05-09T08:34:38.925Z,3.10
2023-05-09T08:36:32.770Z,3.10
2023-05-09T08:38:31.777Z,3.40
2023-05-09T08:40:24.850Z,2.90
2023-05-09T08:42:24.678Z,3.10
2023-05-09T08:44:21.736Z,3.40
2023-05-09T08:46:16.569Z,3.50
2023-05-09T08:48:10.164Z,3.60
2023-05-09T08:50:04.476Z,3.70
2023-05-09T08:51:57.861Z,3.50
2023-05-09T08:53:52.044Z,3.40
2023-05-09T08:55:46.909Z,3.40
2023-05-09T08:57:40.430Z,3.30
2023-05-09T08:59:37.367Z,3.30
2023-05-09T09:01:30.898Z,3.40
2023-05-09T09:03:26.370Z,3.60
2023-05-09T09:05:39.988Z,3.30
2023-05-09T09:07:36.461Z,3.20
2023-05-09T09:09:29.698Z,3.60
2023-05-09T09:11:23.372Z,3.30
2023-05-09T09:13:18.626Z,3.70
2023-05-09T09:15:17.933Z,3.20
2023-05-09T09:17:15.432Z,3.30
2023-05-09T09:19:13.207Z,3.50
2023-05-09T09:21:09.837Z,3.80
2023-05-09T09:23:05.669Z,3.70
2023-05-09T09:25:00.326Z,3.50
2023-05-09T09:26:53.376Z,3.80
2023-05-09T09:29:07.621Z,4.40
2023-05-09T09:31:02.487Z,4.80
2023-05-09T09:33:00.713Z,3.50
2023-05-09T09:35:07.980Z,3.40
2023-05-09T09:37:02.686Z,3.50
2023-05-09T09:39:00.933Z,3.20
2023-05-09T09:40:58.896Z,3.50
2023-05-09T09:42:52.466Z,3.30
2023-05-09T09:44:45.403Z,3.00
2023-05-09T09:46:48.387Z,3.10
2023-05-09T09:48:52.932Z,3.30
2023-05-09T09:50:47.976Z,3.40
2023-05-09T09:52:51.817Z,3.10
2023-05-09T09:54:44.975Z,3.90
2023-05-09T09:56:46.613Z,3.30
2023-05-09T09:58:39.472Z,3.30
2023-05-09T10:00:32.926Z,3.50
2023-05-09T10:02:26.173Z,3.50
2023-05-09T10:04:19.082Z,3.80
2023-05-09T10:06:14.422Z,3.20
2023-05-09T10:08:10.049Z,3.20
2023-05-09T10:10:06.213Z,3.10
2023-05-09T10:12:03.718Z,3.30
2023-05-09T10:13:56.666Z,3.60
2023-05-09T10:15:53.861Z,3.50
2023-05-09T10:17:52.360Z,3.00
2023-05-09T10:21:40.863Z,3.10
2023-05-09T10:23:39.849Z,2.90
2023-05-09T10:25:44.530Z,3.50
2023-05-09T10:27:39.081Z,3.30
2023-05-09T10:29:37.827Z,3.00
2023-05-09T10:31:34.930Z,3.20
2023-05-09T10:33:38.591Z,3.00
2023-05-09T10:35:36.690Z,3.20
2023-05-09T10:37:30.984Z,3.40
2023-05-09T10:39:24.592Z,3.30
2023-05-09T10:41:19.024Z,3.40
2023-05-09T10:43:15.389Z,3.70
2023-05-09T10:45:10.158Z,3.30
2023-05-09T10:47:03.491Z,4.30
2023-05-09T10:48:57.104Z,3.70
2023-05-09T10:50:50.359Z,3.40
2023-05-09T10:53:05.942Z,3.60
2023-05-09T10:55:04.327Z,3.70
2023-05-09T10:56:58.083Z,3.50
2023-05-09T10:58:50.921Z,3.50
2023-05-09T11:00:44.499Z,3.60
2023-05-09T11:02:39.294Z,3.60
2023-05-09T11:04:34.194Z,3.80
2023-05-09T11:06:49.784Z,3.60
2023-05-09T11:08:42.959Z,3.50
2023-05-09T11:10:42.885Z,3.60
2023-05-09T11:13:01.586Z,3.60
2023-05-09T11:15:05.880Z,3.50
2023-05-09T11:17:00.369Z,4.00
2023-05-09T11:18:53.451Z,4.10
2023-05-09T11:20:49.590Z,3.90
2023-05-09T11:22:45.054Z,3.60
2023-05-09T11:24:38.416Z,3.60
2023-05-09T11:26:31.581Z,3.40
2023-05-09T11:28:33.779Z,3.30
2023-05-09T11:30:39.889Z,3.30
2023-05-09T11:32:40.463Z,3.10
2023-05-09T11:34:34.914Z,3.30
2023-05-09T11:36:35.190Z,3.50
2023-05-09T11:38:42.044Z,3.00
2023-05-09T11:40:35.476Z,3.00
2023-05-09T11:42:29.444Z,3.00
2023-05-09T11:44:22.233Z,2.80
2023-05-09T11:46:15.172Z,3.00
2023-05-09T11:48:11.222Z,2.70
2023-05-09T11:50:08.182Z,3.20
2023-05-09T11:52:01.229Z,2.90
2023-05-09T11:53:54.271Z,3.10
2023-05-09T11:55:47.990Z,3.00
2023-05-09T11:57:50.109Z,3.00
2023-05-09T11:59:45.572Z,2.90
2023-05-09T12:01:38.977Z,3.10
2023-05-09T12:03:32.008Z,2.70
2023-05-09T12:05:26.445Z,3.00
2023-05-09T12:07:20.319Z,2.60
2023-05-09T12:09:16.291Z,2.80
2023-05-09T12:11:10.161Z,3.10
2023-05-09T12:13:03.294Z,2.80
2023-05-09T12:14:57.707Z,3.00
2023-05-09T12:16:50.716Z,2.80
2023-05-09T12:18:51.774Z,2.80
2023-05-09T12:20:48.519Z,2.90
2023-05-09T12:22:43.823Z,2.90
2023-05-09T12:24:37.809Z,2.80
2023-05-09T12:26:31.362Z,2.70
2023-05-09T12:28:25.644Z,2.90
2023-05-09T12:30:19.203Z,2.90
2023-05-09T12:32:14.519Z,3.10
2023-05-09T12:34:10.234Z,2.90
2023-05-09T12:36:03.609Z,2.70
2023-05-09T12:37:59.095Z,3.20
2023-05-09T12:40:06.769Z,2.90
2023-05-09T12:42:02.021Z,2.70
2023-05-09T12:43:56.604Z,2.70
2023-05-09T12:45:52.896Z,2.90
2023-05-09T12:47:45.916Z,2.90
2023-05-09T12:49:38.898Z,4.10
2023-05-09T12:51:31.843Z,2.70
2023-05-09T12:53:32.181Z,2.70
2023-05-09T12:55:25.008Z,2.80
2023-05-09T12:57:29.508Z,2.70
2023-05-09T12:59:26.869Z,2.80
2023-05-09T13:01:21.631Z,2.70
2023-05-09T13:03:27.468Z,2.80
2023-05-09T13:05:22.812Z,2.70
2023-05-09T13:07:16.181Z,2.90
2023-05-09T13:09:11.104Z,3.00
2023-05-09T13:11:15.566Z,3.10
2023-05-09T13:13:18.816Z,3.10
2023-05-09T13:15:13.075Z,2.70
2023-05-09T13:17:06.959Z,3.10
2023-05-09T13:19:01.650Z,3.60
2023-05-09T13:20:58.367Z,3.00
2023-05-09T13:22:51.620Z,2.90
2023-05-09T13:24:44.452Z,2.80
2023-05-09T13:26:37.414Z,3.10
2023-05-09T13:28:30.255Z,2.60
2023-05-09T13:30:23.230Z,2.90
2023-05-09T13:32:16.357Z,3.30
2023-05-09T13:34:09.142Z,3.30
2023-05-09T13:36:02.030Z,4.10
2023-05-09T13:37:54.888Z,3.00
2023-05-09T13:39:48.680Z,2.90
2023-05-09T13:41:41.510Z,2.80
2023-05-09T13:43:35.268Z,3.20
2023-05-09T13:45:28.083Z,2.70
2023-05-09T13:47:21.284Z,3.20
2023-05-09T13:49:14.101Z,2.90
2023-05-09T13:51:07.910Z,3.00
2023-05-09T13:53:00.944Z,3.00
2023-05-09T13:54:54.301Z,2.70
2023-05-09T13:57:05.200Z,2.90
2023-05-09T13:58:58.081Z,3.00
2023-05-09T14:00:55.173Z,3.40
2023-05-09T14:05:04.521Z,3.10
2023-05-09T14:06:58.367Z,3.00
2023-05-09T14:08:51.312Z,2.80
2023-05-09T14:10:45.957Z,2.80
2023-05-09T14:12:45.179Z,3.00
2023-05-09T14:14:38.659Z,3.30
2023-05-09T14:16:31.564Z,3.00
2023-05-09T14:18:24.547Z,2.80
2023-05-09T14:20:18.265Z,2.80
2023-05-09T14:22:11.578Z,3.30
2023-05-09T14:24:04.933Z,2.90
2023-05-09T14:25:59.236Z,2.80
2023-05-09T14:27:53.721Z,2.90
2023-05-09T14:29:46.682Z,3.10
2023-05-09T14:31:40.130Z,2.80
2023-05-09T14:33:33.165Z,2.80
2023-05-09T14:35:26.244Z,3.00
2023-05-09T14:37:19.277Z,2.80
2023-05-09T14:39:12.616Z,3.00
2023-05-09T14:41:07.000Z,3.10
2023-05-09T14:43:02.562Z,3.20
2023-05-09T14:44:55.866Z,3.10
2023-05-09T14:46:49.006Z,3.00
2023-05-09T14:48:41.976Z,3.30
2023-05-09T14:50:34.914Z,2.80
2023-05-09T14:52:28.898Z,2.90
2023-05-09T14:54:22.044Z,2.80
2023-05-09T14:56:14.898Z,3.20
2023-05-09T14:58:09.067Z,3.30
2023-05-09T15:02:00.591Z,3.10
2023-05-09T15:03:53.592Z,2.90
2023-05-09T15:05:50.001Z,3.10
2023-05-09T15:07:42.930Z,3.00
2023-05-09T15:09:35.785Z,2.90
2023-05-09T15:11:33.347Z,3.30
2023-05-09T15:13:32.767Z,3.10
2023-05-09T15:15:26.484Z,2.90
2023-05-09T15:17:20.249Z,2.90
2023-05-09T15:19:13.100Z,3.20
2023-05-09T15:21:05.945Z,2.80
2023-05-09T15:22:58.825Z,2.90
2023-05-09T15:24:51.686Z,2.90
2023-05-09T15:26:44.795Z,3.20
2023-05-09T15:28:39.567Z,3.30
2023-05-09T15:30:32.631Z,3.60
2023-05-09T15:32:26.124Z,3.40
2023-05-09T15:34:19.657Z,3.00
2023-05-09T15:36:12.828Z,3.00
2023-05-09T15:38:05.754Z,3.20
2023-05-09T15:39:59.011Z,3.40
2023-05-09T15:41:51.970Z,2.80
2023-05-09T15:43:44.815Z,2.80
2023-05-09T15:45:38.984Z,2.90
2023-05-09T15:47:31.836Z,3.10
2023-05-09T15:49:25.083Z,3.00
2023-05-09T15:51:17.861Z,3.10
2023-05-09T15:53:11.230Z,3.20
2023-05-09T15:55:04.780Z,3.00
2023-05-09T15:56:58.205Z,3.00
2023-05-09T15:58:51.156Z,2.90
2023-05-09T16:00:45.644Z,3.30
2023-05-09T16:02:38.565Z,3.10
2023-05-09T16:04:32.666Z,2.90
2023-05-09T16:06:26.836Z,2.80
2023-05-09T16:08:19.689Z,3.00
2023-05-09T16:10:14.176Z,3.30
2023-05-09T16:12:08.042Z,3.70
2023-05-09T16:14:01.249Z,3.40
2023-05-09T16:15:54.270Z,3.10
2023-05-09T16:17:47.194Z,3.10
2023-05-09T16:19:40.651Z,3.10
2023-05-09T16:21:33.668Z,2.90
2023-05-09T16:23:26.703Z,3.10
2023-05-09T16:25:19.727Z,3.30
2023-05-09T16:27:14.516Z,3.10
2023-05-09T16:29:07.440Z,3.40
2023-05-09T16:31:01.002Z,3.30
2023-05-09T16:32:54.062Z,3.20
2023-05-09T16:34:47.511Z,3.80
2023-05-09T16:36:40.474Z,3.50
2023-05-09T16:38:33.410Z,3.20
2023-05-09T16:40:26.264Z,3.40
2023-05-09T16:42:19.108Z,3.40
2023-05-09T16:44:13.051Z,3.50
2023-05-09T16:46:06.739Z,3.30
2023-05-09T16:48:01.487Z,3.40
2023-05-09T16:49:55.393Z,3.50
2023-05-09T16:51:48.245Z,3.30
2023-05-09T16:53:41.608Z,3.30
2023-05-09T16:55:34.448Z,3.50
2023-05-09T16:57:27.298Z,3.40
2023-05-09T16:59:20.956Z,3.10
2023-05-09T17:01:13.833Z,3.20
2023-05-09T17:03:07.292Z,3.60
2023-05-09T17:05:00.191Z,3.10
2023-05-09T17:06:53.365Z,2.90
2023-05-09T17:08:46.518Z,3.30
2023-05-09T17:10:41.441Z,2.90
2023-05-09T17:12:35.383Z,3.30
2023-05-09T17:14:28.327Z,3.10
2023-05-09T17:16:21.201Z,3.20
2023-05-09T17:18:19.331Z,3.30
2023-05-09T17:20:18.678Z,3.20
2023-05-09T17:22:11.717Z,3.50
2023-05-09T17:24:04.649Z,3.70
2023-05-09T17:25:57.496Z,3.70
2023-05-09T17:27:50.545Z,3.80
2023-05-09T17:29:43.393Z,6.10
2023-05-09T17:31:36.258Z,7.50
2023-05-09T17:33:29.290Z,5.70
2023-05-09T17:35:23.053Z,5.50
2023-05-09T17:37:17.128Z,4.10
2023-05-09T17:39:09.981Z,3.60
2023-05-09T17:41:02.914Z,3.80
2023-05-09T17:42:55.868Z,3.60
2023-05-09T17:44:50.454Z,4.00
2023-05-09T17:46:44.218Z,3.90
2023-05-09T17:48:37.326Z,4.20
2023-05-09T17:50:33.688Z,3.60
2023-05-09T17:52:27.674Z,3.60
2023-05-09T17:54:21.238Z,3.90
2023-05-09T17:56:14.096Z,4.10
2023-05-09T17:58:08.259Z,4.10
2023-05-09T18:00:01.105Z,3.80
2023-05-09T18:01:55.057Z,4.70
2023-05-09T18:03:48.431Z,4.10
2023-05-09T18:05:41.795Z,3.90
2023-05-09T18:07:34.747Z,3.80
2023-05-09T18:09:28.306Z,3.80
2023-05-09T18:11:22.558Z,4.00
2023-05-09T18:13:15.450Z,4.20
2023-05-09T18:15:08.887Z,4.10
2023-05-09T18:17:02.153Z,3.90
2023-05-09T18:18:54.943Z,3.90
2023-05-09T18:20:48.052Z,4.00
2023-05-09T18:22:42.169Z,4.00
2023-05-09T18:24:36.902Z,4.00
2023-05-09T18:26:29.751Z,4.20
2023-05-09T18:28:24.969Z,4.80
2023-05-09T18:30:18.871Z,4.60
2023-05-09T18:32:13.902Z,4.70
2023-05-09T18:34:07.736Z,4.40
2023-05-09T18:36:01.262Z,4.50
2023-05-09T18:37:54.517Z,4.30
2023-05-09T18:39:47.765Z,4.30
2023-05-09T18:41:41.638Z,4.50
2023-05-09T18:43:36.057Z,4.70
2023-05-09T18:45:29.320Z,4.40
2023-05-09T18:47:23.984Z,4.50
2023-05-09T18:49:17.631Z,4.30
2023-05-09T18:51:11.085Z,4.30
2023-05-09T18:53:03.928Z,4.70
2023-05-09T18:54:56.975Z,4.90
2023-05-09T18:56:50.039Z,4.90
2023-05-09T18:58:42.869Z,4.80
2023-05-09T19:00:36.265Z,5.00
2023-05-09T19:02:30.303Z,5.20
2023-05-09T19:04:23.609Z,5.70
2023-05-09T19:06:16.612Z,5.20
2023-05-09T19:08:10.329Z,5.40
2023-05-09T19:10:04.888Z,5.20
2023-05-09T19:11:59.658Z,5.50
2023-05-09T19:13:53.297Z,5.10
2023-05-09T19:15:50.090Z,5.20
2023-05-09T19:17:43.953Z,5.10
2023-05-09T19:19:40.882Z,5.40
2023-05-09T19:21:35.942Z,5.40
2023-05-09T19:23:30.277Z,5.10
2023-05-09T19:25:24.008Z,5.00
2023-05-09T19:27:19.551Z,6.10
2023-05-09T19:29:12.471Z,6.60
2023-05-09T19:31:05.359Z,7.70
2023-05-09T19:32:58.388Z,7.90
2023-05-09T19:34:51.233Z,7.40
2023-05-09T19:36:44.069Z,7.60
2023-05-09T19:38:37.004Z,7.40
2023-05-09T19:40:29.993Z,7.40
2023-05-09T19:42:22.898Z,7.60
2023-05-09T19:44:15.751Z,7.90
2023-05-09T19:46:08.791Z,7.80
2023-05-09T19:48:04.878Z,8.90
2023-05-09T19:49:59.505Z,8.90
2023-05-09T19:51:52.664Z,8.50
2023-05-09T19:53:47.363Z,8.70
2023-05-09T19:55:41.422Z,6.90
2023-05-09T19:57:34.289Z,7.80
2023-05-09T19:59:27.332Z,8.40
2023-05-09T20:01:21.012Z,6.70
2023-05-09T20:03:14.329Z,6.40
2023-05-09T20:05:07.958Z,6.80
2023-05-09T20:07:02.326Z,6.60
2023-05-09T20:08:55.576Z,7.40
2023-05-09T20:10:48.501Z,7.30
2023-05-09T20:12:41.994Z,7.00
2023-05-09T20:14:35.724Z,8.00
2023-05-09T20:16:28.706Z,8.20
2023-05-09T20:18:22.036Z,14.40
2023-05-09T20:20:15.225Z,11.80
2023-05-09T20:22:09.080Z,10.50
2023-05-09T20:24:02.208Z,9.40
2023-05-09T20:25:56.017Z,9.50
2023-05-09T20:27:49.028Z,9.00
2023-05-09T20:29:41.980Z,8.20
2023-05-09T20:31:35.043Z,7.60
2023-05-09T20:33:27.989Z,7.50
2023-05-09T20:35:21.030Z,7.40
2023-05-09T20:37:13.926Z,8.80
2023-05-09T20:39:07.394Z,8.20
2023-05-09T20:41:01.604Z,8.50
2023-05-09T20:42:54.555Z,8.30
2023-05-09T20:44:48.941Z,8.70
2023-05-09T20:46:42.139Z,7.80
2023-05-09T20:48:36.109Z,7.40
2023-05-09T20:50:30.572Z,7.30
2023-05-09T20:52:23.804Z,7.50
2023-05-09T20:54:17.982Z,8.50
2023-05-09T20:56:11.129Z,7.80
2023-05-09T20:58:04.079Z,8.00
2023-05-09T20:59:57.261Z,8.10
2023-05-09T21:01:52.707Z,8.00
2023-05-09T21:03:46.410Z,7.80
2023-05-09T21:05:58.822Z,8.10
2023-05-09T21:08:33.392Z,7.70
2023-05-09T21:10:32.880Z,8.20
2023-05-09T21:12:29.481Z,8.20
2023-05-09T21:14:23.452Z,8.40
2023-05-09T21:16:16.504Z,8.20
2023-05-09T21:18:09.580Z,8.00
2023-05-09T21:20:02.698Z,8.20
2023-05-09T21:21:55.764Z,8.60
2023-05-09T21:23:48.700Z,8.80
2023-05-09T21:25:42.667Z,8.90
2023-05-09T21:27:35.921Z,8.40
2023-05-09T21:29:28.866Z,9.60
2023-05-09T21:31:21.883Z,9.20
2023-05-09T21:33:15.075Z,9.30
2023-05-09T21:35:11.072Z,8.80
2023-05-09T21:37:03.939Z,8.80
2023-05-09T21:38:56.781Z,9.90
2023-05-09T21:40:51.352Z,9.10
2023-05-09T21:42:44.330Z,9.70
2023-05-09T21:44:37.675Z,9.70
2023-05-09T21:46:33.286Z,9.50
2023-05-09T21:48:26.341Z,9.40
2023-05-09T21:50:19.381Z,10.10
2023-05-09T21:52:12.347Z,9.40
2023-05-09T21:54:05.390Z,9.10
2023-05-09T21:55:58.335Z,9.80
2023-05-09T21:57:51.280Z,9.40
2023-05-09T21:59:44.437Z,9.50
2023-05-09T22:01:37.519Z,10.20
2023-05-09T22:03:30.655Z,10.40
2023-05-09T22:05:23.994Z,9.70
2023-05-09T22:07:16.942Z,9.50
2023-05-09T22:09:10.813Z,9.40
2023-05-09T22:11:03.764Z,9.70
2023-05-09T22:12:57.401Z,10.80
2023-05-09T22:14:56.310Z,10.40
2023-05-09T22:16:49.814Z,10.20
2023-05-09T22:18:43.352Z,10.10
2023-05-09T22:20:36.386Z,10.30
2023-05-09T22:22:29.978Z,10.20
2023-05-09T22:24:23.063Z,9.90
2023-05-09T22:26:16.050Z,10.10
2023-05-09T22:28:09.342Z,10.30
2023-05-09T22:30:03.684Z,10.70
2023-05-09T22:31:56.583Z,9.80
2023-05-09T22:33:49.692Z,9.70
2023-05-09T22:35:42.641Z,10.10
2023-05-09T22:37:36.502Z,10.40
2023-05-09T22:39:30.067Z,10.20
2023-05-09T22:41:23.014Z,11.10
2023-05-09T22:43:16.185Z,10.20
2023-05-09T22:45:09.623Z,11.50
2023-05-09T22:47:02.461Z,10.80
2023-05-09T22:48:55.234Z,11.10
2023-05-09T22:50:48.156Z,10.80
2023-05-09T22:52:41.108Z,11.00
2023-05-09T22:54:34.255Z,10.90
2023-05-09T22:56:27.530Z,10.20
2023-05-09T22:58:20.678Z,11.10
2023-05-09T23:00:14.993Z,10.80
2023-05-09T23:02:08.141Z,10.70
2023-05-09T23:04:01.251Z,11.10
2023-05-09T23:05:54.507Z,11.50
2023-05-09T23:07:47.761Z,11.20
2023-05-09T23:09:41.028Z,12.20
2023-05-09T23:11:34.092Z,10.90
2023-05-09T23:13:26.951Z,11.30
2023-05-09T23:15:19.978Z,12.10
2023-05-09T23:17:12.914Z,11.10
2023-05-09T23:19:06.501Z,11.90
2023-05-09T23:20:59.263Z,11.60
2023-05-09T23:22:52.176Z,11.50
2023-05-09T23:24:45.340Z,11.40
2023-05-09T23:26:38.291Z,10.70
2023-05-09T23:28:31.404Z,10.60
2023-05-09T23:30:24.286Z,11.00
2023-05-09T23:32:17.117Z,10.60
2023-05-09T23:34:10.144Z,10.30
2023-05-09T23:36:03.941Z,10.20
2023-05-09T23:37:56.982Z,10.50
2023-05-09T23:39:50.342Z,9.80
2023-05-09T23:41:43.182Z,10.00
2023-05-09T23:43:37.901Z,10.00
2023-05-09T23:45:31.026Z,10.50
2023-05-09T23:47:23.770Z,10.30
2023-05-09T23:49:16.717Z,10.50
2023-05-09T23:51:09.514Z,10.30
2023-05-09T23:53:04.973Z,9.90
2023-05-09T23:54:57.922Z,9.70
2023-05-09T23:56:50.861Z,10.20
2023-05-09T23:58:43.734Z,9.30
